Time;durP1;ratioP1;P1;durP2;ratioP2;P2;SDS_P1;SDS_P2;PMS_P1;PMS_P2;Temp;Humidity;BMP_temperature;BMP_pressure;BME280_temperature;BME280_humidity;BME280_pressure;Samples;Min_cycle;Max_cycle;Signal;HPM_P1;HPM_P2
2022/08/20 00:00:39;;;;;;;4.32;3.80;;;20.20;99.90;;;;;;5076316;28;20225;-87
2022/08/20 00:03:09;;;;;;;9.15;4.22;;;20.20;99.90;;;;;;5076449;28;20166;-87
2022/08/20 00:05:42;;;;;;;6.05;3.10;;;20.20;99.90;;;;;;5073842;28;20189;-85
2022/08/20 00:08:10;;;;;;;7.10;3.60;;;20.30;99.90;;;;;;5076413;28;20202;-84
2022/08/20 00:10:38;;;;;;;6.60;3.50;;;20.30;99.90;;;;;;5076616;28;20222;-85
2022/08/20 00:13:06;;;;;;;8.68;3.03;;;20.40;99.90;;;;;;5075609;28;20167;-86
2022/08/20 00:15:35;;;;;;;10.23;3.83;;;20.20;99.90;;;;;;5075739;28;20159;-87
2022/08/20 00:18:01;;;;;;;5.47;3.30;;;20.10;99.90;;;;;;5080393;28;20177;-81
2022/08/20 00:20:29;;;;;;;6.07;2.92;;;19.90;99.90;;;;;;5081917;28;20173;-86
2022/08/20 00:22:56;;;;;;;10.10;3.03;;;19.90;99.90;;;;;;5082804;28;20167;-85
2022/08/20 00:25:24;;;;;;;11.55;3.35;;;20.20;99.90;;;;;;5085654;28;20173;-85
2022/08/20 00:27:49;;;;;;;3.60;2.95;;;20.20;99.90;;;;;;5090351;28;20249;-87
2022/08/20 00:30:16;;;;;;;9.25;3.17;;;20.20;99.90;;;;;;5087908;28;20170;-88
2022/08/20 00:32:47;;;;;;;5.55;2.70;;;20.20;99.90;;;;;;5089102;28;20184;-88
2022/08/20 00:35:15;;;;;;;7.18;2.67;;;20.20;99.90;;;;;;5086315;28;20173;-89
2022/08/20 00:37:41;;;;;;;3.22;2.53;;;20.00;99.90;;;;;;5078132;28;20174;-85
2022/08/20 00:40:08;;;;;;;9.95;3.60;;;19.90;99.90;;;;;;5079428;28;20235;-84
2022/08/20 00:42:47;;;;;;;12.10;2.85;;;20.00;99.90;;;;;;5076868;28;20236;-85
2022/08/20 00:45:14;;;;;;;5.63;2.78;;;20.20;99.90;;;;;;5080225;28;20170;-83
2022/08/20 00:47:43;;;;;;;6.75;2.95;;;20.20;99.90;;;;;;5097712;28;20164;-84
2022/08/20 00:50:25;;;;;;;5.88;3.00;;;20.10;99.90;;;;;;5098753;28;20162;-88
2022/08/20 00:52:51;;;;;;;6.93;2.83;;;20.00;99.90;;;;;;5098197;28;20178;-86
2022/08/20 00:55:20;;;;;;;11.98;3.13;;;20.10;99.90;;;;;;5097578;28;20166;-85
2022/08/20 00:57:52;;;;;;;5.63;2.78;;;19.80;99.90;;;;;;5097442;28;20174;-87
2022/08/20 01:00:26;;;;;;;8.40;2.60;;;19.80;99.90;;;;;;5094020;28;20175;-79
2022/08/20 01:02:53;;;;;;;15.30;2.88;;;19.90;99.90;;;;;;5076151;28;20654;-79
2022/08/20 01:05:21;;;;;;;6.63;3.33;;;19.90;99.90;;;;;;5076030;28;20621;-79
2022/08/20 01:07:47;;;;;;;5.93;2.75;;;19.80;99.90;;;;;;5074995;28;20204;-81
2022/08/20 01:10:19;;;;;;;8.43;3.13;;;19.70;99.90;;;;;;5075903;28;20194;-88
2022/08/20 01:12:46;;;;;;;5.53;3.25;;;19.80;99.90;;;;;;5074903;28;20261;-79
2022/08/20 01:15:16;;;;;;;5.32;3.13;;;19.90;99.90;;;;;;5078574;28;20253;-88
2022/08/20 01:17:45;;;;;;;7.30;4.05;;;20.00;99.90;;;;;;5074069;28;20190;-81
2022/08/20 01:20:21;;;;;;;6.95;3.53;;;19.90;99.90;;;;;;5074135;28;20169;-80
2022/08/20 01:25:56;;;;;;;11.70;3.33;;;19.60;99.90;;;;;;5074660;28;20213;-79
2022/08/20 01:28:30;;;;;;;11.23;3.50;;;19.50;99.90;;;;;;5074008;28;20207;-79
2022/08/20 01:30:56;;;;;;;8.18;3.65;;;19.50;99.90;;;;;;5073763;28;20585;-79
2022/08/20 01:33:23;;;;;;;16.88;3.55;;;19.50;99.90;;;;;;5074055;28;20241;-79
2022/08/20 01:35:49;;;;;;;9.43;3.88;;;19.50;99.90;;;;;;5073758;28;20175;-79
2022/08/20 01:38:15;;;;;;;10.40;3.40;;;19.50;99.90;;;;;;5073788;28;20170;-80
2022/08/20 01:40:50;;;;;;;14.93;3.88;;;19.40;99.90;;;;;;5073694;28;20251;-79
2022/08/20 01:43:16;;;;;;;5.80;3.50;;;19.40;99.90;;;;;;5074058;28;20170;-79
2022/08/20 01:45:42;;;;;;;8.75;3.25;;;19.30;99.90;;;;;;5073607;28;20748;-80
2022/08/20 01:48:08;;;;;;;5.38;3.55;;;19.30;99.90;;;;;;5073973;28;20207;-80
2022/08/20 01:50:38;;;;;;;10.10;3.00;;;19.30;99.90;;;;;;5073654;28;20212;-79
2022/08/20 01:53:23;;;;;;;8.00;3.85;;;19.10;99.90;;;;;;5073618;28;20920;-81
2022/08/20 01:55:49;;;;;;;12.63;4.65;;;19.00;99.90;;;;;;5073316;28;20214;-79
2022/08/20 01:58:15;;;;;;;12.77;4.68;;;18.90;99.90;;;;;;5073514;28;20208;-79
2022/08/20 02:00:41;;;;;;;10.65;2.88;;;18.90;99.90;;;;;;5073481;28;20187;-79
2022/08/20 02:03:07;;;;;;;9.05;3.47;;;18.80;99.90;;;;;;5073522;28;20222;-79
2022/08/20 02:05:34;;;;;;;14.55;3.92;;;18.90;99.90;;;;;;5073229;28;20162;-79
2022/08/20 02:08:00;;;;;;;12.30;3.42;;;18.80;99.90;;;;;;5073359;28;20212;-79
2022/08/20 02:10:27;;;;;;;12.52;3.38;;;18.80;99.90;;;;;;5072251;28;20571;-80
2022/08/20 02:12:53;;;;;;;9.93;3.28;;;18.90;99.90;;;;;;5073569;28;20162;-79
2022/08/20 02:15:18;;;;;;;9.80;3.70;;;18.80;99.90;;;;;;5073313;28;20175;-79
2022/08/20 02:17:44;;;;;;;12.18;3.45;;;18.80;99.90;;;;;;5073322;28;20163;-79
2022/08/20 02:20:16;;;;;;;8.10;2.72;;;18.80;99.90;;;;;;5073102;28;20242;-79
2022/08/20 02:22:53;;;;;;;15.43;3.33;;;18.80;99.90;;;;;;5073839;28;20209;-81
2022/08/20 02:25:21;;;;;;;5.28;2.85;;;18.60;99.90;;;;;;5071623;28;20174;-81
2022/08/20 02:27:48;;;;;;;6.20;3.13;;;18.40;99.90;;;;;;5073035;28;20253;-79
2022/08/20 02:30:19;;;;;;;9.65;3.13;;;18.40;99.90;;;;;;5070972;28;20251;-81
2022/08/20 02:32:45;;;;;;;18.08;3.63;;;18.40;99.90;;;;;;5073092;28;20193;-82
2022/08/20 02:35:12;;;;;;;10.10;2.67;;;18.40;99.90;;;;;;5073294;28;20166;-79
2022/08/20 02:37:40;;;;;;;23.50;3.63;;;18.30;99.90;;;;;;5072645;28;20167;-81
2022/08/20 02:40:08;;;;;;;8.65;3.10;;;18.30;99.90;;;;;;5073061;28;20646;-79
2022/08/20 02:42:35;;;;;;;12.85;3.28;;;18.20;99.90;;;;;;5072976;28;20559;-82
2022/08/20 02:45:01;;;;;;;12.07;3.75;;;18.30;99.90;;;;;;5072687;28;20530;-79
2022/08/20 02:47:27;;;;;;;18.35;3.75;;;18.40;99.90;;;;;;5072360;28;20221;-81
2022/08/20 02:49:53;;;;;;;24.42;3.55;;;18.40;99.90;;;;;;5072919;28;20213;-82
2022/08/20 02:52:19;;;;;;;17.17;3.97;;;18.20;99.90;;;;;;5072560;28;20194;-80
2022/08/20 02:54:45;;;;;;;5.38;4.15;;;18.10;99.90;;;;;;5072490;28;20245;-80
2022/08/20 02:57:13;;;;;;;9.60;3.55;;;18.10;99.90;;;;;;5072414;28;20190;-80
2022/08/20 02:59:39;;;;;;;9.60;3.83;;;18.10;99.90;;;;;;5072763;28;20670;-81
2022/08/20 03:02:04;;;;;;;15.52;4.20;;;18.20;99.90;;;;;;5072382;28;20182;-80
2022/08/20 03:04:30;;;;;;;15.63;4.68;;;18.10;99.90;;;;;;5072219;28;20170;-82
2022/08/20 03:06:57;;;;;;;18.67;4.28;;;18.10;99.90;;;;;;5072141;28;20273;-80
2022/08/20 03:09:23;;;;;;;15.18;4.57;;;18.10;99.90;;;;;;5072251;28;20265;-80
2022/08/20 03:11:48;;;;;;;20.02;4.72;;;18.00;99.90;;;;;;5072667;28;20193;-88
2022/08/20 03:14:14;;;;;;;10.15;4.13;;;18.00;99.90;;;;;;5072044;28;20171;-88
2022/08/20 03:16:40;;;;;;;22.02;4.53;;;18.10;99.90;;;;;;5074108;28;20189;-84
2022/08/20 03:19:07;;;;;;;12.23;4.22;;;18.10;99.90;;;;;;5074519;28;20194;-90
2022/08/20 03:21:32;;;;;;;14.35;5.43;;;18.20;99.90;;;;;;5074252;28;20183;-90
2022/08/20 03:23:58;;;;;;;16.58;4.85;;;18.30;99.90;;;;;;5074096;28;20173;-90
2022/08/20 03:26:24;;;;;;;13.00;4.50;;;18.20;99.90;;;;;;5073944;28;20169;-82
2022/08/20 03:28:49;;;;;;;32.22;5.40;;;18.10;99.90;;;;;;5073406;28;20241;-84
2022/08/20 03:31:15;;;;;;;15.60;5.68;;;18.10;99.90;;;;;;5074508;28;20179;-81
2022/08/20 03:33:41;;;;;;;20.95;4.97;;;18.10;99.90;;;;;;5078377;28;20199;-84
2022/08/20 03:36:09;;;;;;;9.52;4.20;;;18.10;99.90;;;;;;5085051;28;20162;-82
2022/08/20 03:38:35;;;;;;;14.15;5.07;;;18.20;99.90;;;;;;5081136;28;20261;-86
2022/08/20 03:41:02;;;;;;;14.57;5.25;;;18.00;99.90;;;;;;5081420;28;20214;-85
2022/08/20 03:43:28;;;;;;;27.27;6.00;;;18.00;99.90;;;;;;5078758;28;20685;-83
2022/08/20 03:45:53;;;;;;;16.02;4.68;;;18.10;99.90;;;;;;5076499;28;20254;-89
2022/08/20 03:48:20;;;;;;;22.70;5.20;;;18.30;99.90;;;;;;5076678;28;20599;-85
2022/08/20 03:50:47;;;;;;;18.63;5.10;;;18.10;99.90;;;;;;5076321;28;20649;-87
2022/08/20 03:53:13;;;;;;;15.10;5.15;;;18.10;99.90;;;;;;5076712;28;20167;-87
2022/08/20 03:55:42;;;;;;;15.38;4.68;;;17.90;99.90;;;;;;5076816;28;20162;-86
2022/08/20 03:58:08;;;;;;;12.95;5.28;;;17.80;99.90;;;;;;5077155;28;20241;-85
2022/08/20 04:00:41;;;;;;;12.27;5.32;;;17.70;99.90;;;;;;5077111;28;20225;-83
2022/08/20 04:03:07;;;;;;;17.50;5.25;;;17.60;99.90;;;;;;5078568;28;20154;-82
2022/08/20 04:05:38;;;;;;;17.27;4.90;;;17.70;99.90;;;;;;5079453;28;20170;-86
2022/08/20 04:08:04;;;;;;;31.10;5.38;;;17.60;99.90;;;;;;5077533;28;20247;-83
2022/08/20 04:10:30;;;;;;;23.42;5.20;;;17.70;99.90;;;;;;5077263;28;20304;-84
2022/08/20 04:12:55;;;;;;;21.65;5.95;;;17.80;99.90;;;;;;5077974;28;20162;-87
2022/08/20 04:15:22;;;;;;;22.95;5.53;;;17.80;99.90;;;;;;5078113;28;20194;-88
2022/08/20 04:17:49;;;;;;;11.98;5.45;;;17.80;99.90;;;;;;5080151;28;20158;-88
2022/08/20 04:20:19;;;;;;;14.73;5.97;;;17.90;99.90;;;;;;5079841;28;20538;-88
2022/08/20 04:22:46;;;;;;;16.55;5.32;;;17.70;99.90;;;;;;5080441;28;20153;-88
2022/08/20 04:25:12;;;;;;;20.40;5.85;;;18.00;99.90;;;;;;5080024;28;20174;-89
2022/08/20 04:27:38;;;;;;;14.15;4.88;;;17.90;99.90;;;;;;5079691;28;20163;-87
2022/08/20 04:30:07;;;;;;;10.80;5.75;;;17.80;99.90;;;;;;5078389;28;20289;-88
2022/08/20 04:32:35;;;;;;;13.35;4.80;;;17.70;99.90;;;;;;5075369;28;20235;-86
2022/08/20 04:35:06;;;;;;;21.02;5.70;;;17.70;99.90;;;;;;5075372;28;20257;-86
2022/08/20 04:37:32;;;;;;;15.73;5.55;;;17.70;99.90;;;;;;5076783;28;20633;-82
2022/08/20 04:42:52;;;;;;;17.77;5.63;;;17.60;99.90;;;;;;5084842;28;20174;-86
2022/08/20 04:45:18;;;;;;;17.67;6.45;;;17.70;99.90;;;;;;5076401;28;20166;-85
2022/08/20 04:47:45;;;;;;;16.63;5.90;;;17.60;99.90;;;;;;5076083;28;20638;-81
2022/08/20 04:50:11;;;;;;;15.38;5.88;;;17.60;99.90;;;;;;5075585;28;20211;-79
2022/08/20 04:52:37;;;;;;;16.65;6.32;;;17.70;99.90;;;;;;5074292;28;20194;-79
2022/08/20 04:55:04;;;;;;;19.50;6.35;;;17.70;99.90;;;;;;5075529;28;20170;-84
2022/08/20 04:57:30;;;;;;;21.63;5.68;;;17.60;99.90;;;;;;5076321;28;20162;-87
2022/08/20 04:59:55;;;;;;;24.83;6.35;;;17.50;99.90;;;;;;5075431;28;20253;-83
2022/08/20 05:02:21;;;;;;;17.52;5.55;;;17.50;99.90;;;;;;5076332;28;20261;-84
2022/08/20 05:04:47;;;;;;;14.95;5.43;;;17.30;99.90;;;;;;5076265;28;20163;-87
2022/08/20 05:07:14;;;;;;;15.40;5.45;;;17.20;99.90;;;;;;5076012;28;20201;-80
2022/08/20 05:09:41;;;;;;;19.30;6.13;;;17.40;99.90;;;;;;5074828;28;20209;-79
2022/08/20 05:12:07;;;;;;;15.25;5.30;;;17.50;99.90;;;;;;5074271;28;20190;-80
2022/08/20 05:14:33;;;;;;;11.73;5.53;;;17.60;99.90;;;;;;5074849;28;20631;-87
2022/08/20 05:17:03;;;;;;;20.40;6.43;;;17.80;99.90;;;;;;5074576;28;20173;-79
2022/08/20 05:19:30;;;;;;;27.45;5.10;;;17.70;99.90;;;;;;5074613;28;20539;-79
2022/08/20 05:21:56;;;;;;;20.73;5.68;;;17.80;99.90;;;;;;5074248;28;20269;-80
2022/08/20 05:24:22;;;;;;;21.00;6.07;;;17.90;99.90;;;;;;5074150;28;20612;-78
2022/08/20 05:26:48;;;;;;;16.45;5.43;;;17.90;99.90;;;;;;5074098;28;20166;-79
2022/08/20 05:29:14;;;;;;;20.35;5.40;;;18.00;99.90;;;;;;5074177;28;20202;-79
2022/08/20 05:31:40;;;;;;;20.77;5.35;;;18.00;99.90;;;;;;5074118;28;20255;-79
2022/08/20 05:34:09;;;;;;;24.70;5.28;;;17.90;99.90;;;;;;5074366;28;20530;-79
2022/08/20 05:36:36;;;;;;;20.08;5.50;;;17.90;99.90;;;;;;5074018;28;20167;-81
2022/08/20 05:39:02;;;;;;;13.90;5.65;;;18.00;99.90;;;;;;5074058;28;20507;-80
2022/08/20 05:41:28;;;;;;;19.85;4.88;;;18.10;99.90;;;;;;5073839;28;20687;-79
2022/08/20 05:43:54;;;;;;;24.60;6.40;;;18.40;99.90;;;;;;5074228;28;20163;-81
2022/08/20 05:46:21;;;;;;;19.40;4.85;;;18.30;99.90;;;;;;5074270;28;20205;-80
2022/08/20 05:48:47;;;;;;;12.40;5.28;;;18.30;99.90;;;;;;5074296;28;20229;-78
2022/08/20 05:51:14;;;;;;;14.85;5.85;;;18.30;99.90;;;;;;5074056;28;20601;-78
2022/08/20 05:53:40;;;;;;;23.60;5.00;;;18.40;99.90;;;;;;5074259;28;20166;-78
2022/08/20 05:56:06;;;;;;;22.33;5.88;;;18.40;99.90;;;;;;5074512;28;20250;-78
2022/08/20 05:58:31;;;;;;;22.52;4.97;;;18.40;99.90;;;;;;5073938;28;20173;-78
2022/08/20 06:00:57;;;;;;;24.25;4.38;;;18.30;99.90;;;;;;5072373;28;20677;-80
2022/08/20 06:06:08;;;;;;;12.95;5.00;;;18.50;99.90;;;;;;5073912;28;20239;-78
2022/08/20 06:08:35;;;;;;;17.73;5.28;;;18.50;99.90;;;;;;5073956;28;20206;-82
2022/08/20 06:11:01;;;;;;;13.77;5.20;;;18.40;99.90;;;;;;5073524;28;20261;-78
2022/08/20 06:13:27;;;;;;;16.33;5.47;;;18.40;99.90;;;;;;5073786;28;20253;-78
2022/08/20 06:15:54;;;;;;;10.60;4.97;;;18.40;99.90;;;;;;5072446;28;20533;-85
2022/08/20 06:18:20;;;;;;;14.50;5.55;;;18.60;99.90;;;;;;5074209;28;20263;-80
2022/08/20 06:20:45;;;;;;;16.00;5.45;;;18.60;99.90;;;;;;5074489;28;20269;-78
2022/08/20 06:23:11;;;;;;;21.15;5.43;;;18.80;99.90;;;;;;5077055;28;20174;-78
2022/08/20 06:25:37;;;;;;;9.40;5.03;;;18.70;99.90;;;;;;5075021;28;20163;-78
2022/08/20 06:28:04;;;;;;;19.13;5.00;;;18.90;99.90;;;;;;5076871;28;20205;-79
2022/08/20 06:30:30;;;;;;;18.48;5.13;;;19.00;99.90;;;;;;5073022;28;20217;-81
2022/08/20 06:32:57;;;;;;;9.75;4.95;;;18.50;99.90;;;;;;5073267;28;20245;-78
2022/08/20 06:35:23;;;;;;;16.85;4.80;;;18.40;99.90;;;;;;5073048;28;20173;-82
2022/08/20 06:37:49;;;;;;;21.20;5.28;;;18.70;99.90;;;;;;5073753;28;20162;-78
2022/08/20 06:40:21;;;;;;;14.25;4.50;;;18.90;99.90;;;;;;5075425;28;20180;-81
2022/08/20 06:42:48;;;;;;;14.25;5.22;;;19.30;99.90;;;;;;5072930;28;20169;-79
2022/08/20 06:45:23;;;;;;;11.45;4.63;;;19.50;99.90;;;;;;5075758;28;20250;-79
2022/08/20 06:47:49;;;;;;;19.00;5.70;;;19.80;99.90;;;;;;5073452;28;20522;-78
2022/08/20 06:50:19;;;;;;;11.55;5.15;;;19.80;99.90;;;;;;5073976;28;20886;-77
2022/08/20 06:52:46;;;;;;;16.15;5.72;;;20.10;99.90;;;;;;5074670;28;20226;-86
2022/08/20 06:55:13;;;;;;;18.08;5.32;;;20.30;99.90;;;;;;5075751;28;20185;-79
2022/08/20 06:57:40;;;;;;;11.10;5.47;;;20.30;99.90;;;;;;5074275;28;20541;-82
2022/08/20 07:00:13;;;;;;;10.20;4.80;;;20.30;99.90;;;;;;5072771;28;20284;-80
2022/08/20 07:02:39;;;;;;;13.43;5.82;;;20.40;99.90;;;;;;5072636;28;20692;-79
2022/08/20 07:05:05;;;;;;;25.02;6.72;;;20.60;99.90;;;;;;5070858;28;20170;-78
2022/08/20 07:07:31;;;;;;;22.15;5.85;;;20.80;99.90;;;;;;5072027;28;20186;-79
2022/08/20 07:10:09;;;;;;;28.48;8.43;;;20.90;99.90;;;;;;5072446;28;20198;-79
2022/08/20 07:12:35;;;;;;;16.85;5.43;;;20.90;99.90;;;;;;5071147;28;20198;-81
2022/08/20 07:15:06;;;;;;;30.00;7.70;;;21.00;99.90;;;;;;5071932;28;20257;-79
2022/08/20 07:17:31;;;;;;;19.67;8.57;;;21.30;99.90;;;;;;5072286;28;20158;-79
2022/08/20 07:19:57;;;;;;;18.20;5.45;;;21.60;99.90;;;;;;5072430;28;20188;-80
2022/08/20 07:22:23;;;;;;;11.88;5.70;;;21.50;99.90;;;;;;5071944;28;20267;-80
2022/08/20 07:24:50;;;;;;;16.25;6.25;;;21.50;99.90;;;;;;5072902;28;20555;-79
2022/08/20 07:27:21;;;;;;;11.32;5.88;;;21.40;99.90;;;;;;5072873;28;20162;-81
2022/08/20 07:32:35;;;;;;;10.38;6.30;;;21.20;99.90;;;;;;5072191;28;20773;-79
2022/08/20 07:35:04;;;;;;;19.63;7.72;;;21.40;99.90;;;;;;5072184;28;20173;-79
2022/08/20 07:37:29;;;;;;;14.15;7.32;;;21.60;99.90;;;;;;5072272;28;20166;-79
2022/08/20 07:39:55;;;;;;;16.52;6.75;;;21.50;99.90;;;;;;5072417;28;20166;-79
2022/08/20 07:42:20;;;;;;;24.55;6.95;;;21.70;99.90;;;;;;5072194;28;20213;-79
2022/08/20 07:44:46;;;;;;;13.77;5.63;;;21.60;99.90;;;;;;5072143;28;20511;-80
2022/08/20 07:47:12;;;;;;;17.88;6.70;;;21.60;99.90;;;;;;5071834;28;20159;-78
2022/08/20 07:49:38;;;;;;;12.60;5.65;;;21.60;99.90;;;;;;5051326;28;20210;-82
2022/08/20 07:52:07;;;;;;;16.20;5.90;;;21.30;99.90;;;;;;5051734;28;20191;-85
2022/08/20 07:54:34;;;;;;;14.45;6.38;;;21.40;99.90;;;;;;5050889;28;20167;-85
2022/08/20 07:57:04;;;;;;;16.48;5.68;;;21.40;99.90;;;;;;5050801;28;20174;-84
2022/08/20 07:59:30;;;;;;;20.55;5.80;;;21.50;99.90;;;;;;5069964;28;20649;-85
2022/08/20 08:01:56;;;;;;;16.67;6.15;;;21.60;99.90;;;;;;5070935;28;20194;-85
2022/08/20 08:04:23;;;;;;;11.88;5.32;;;21.60;99.90;;;;;;5070715;28;20167;-85
2022/08/20 08:06:50;;;;;;;14.50;5.25;;;21.60;99.90;;;;;;5069382;28;20191;-86
2022/08/20 08:09:16;;;;;;;24.45;6.07;;;21.60;99.90;;;;;;5068185;28;20214;-88
2022/08/20 08:11:49;;;;;;;20.63;5.32;;;21.60;99.90;;;;;;5071804;28;20191;-87
2022/08/20 08:14:18;;;;;;;20.88;4.30;;;21.70;99.90;;;;;;5070403;28;20170;-85
2022/08/20 08:16:44;;;;;;;24.92;5.78;;;21.80;99.90;;;;;;5070951;28;20206;-87
2022/08/20 08:19:10;;;;;;;16.85;4.95;;;21.90;99.90;;;;;;5070261;28;20188;-90
2022/08/20 08:21:36;;;;;;;9.85;4.95;;;22.00;99.90;;;;;;5071081;28;20193;-90
2022/08/20 08:24:02;;;;;;;18.33;5.32;;;22.00;99.90;;;;;;5074011;28;20523;-89
2022/08/20 08:26:28;;;;;;;14.43;4.95;;;22.10;99.90;;;;;;5073060;28;20167;-91
2022/08/20 08:28:53;;;;;;;9.40;4.35;;;22.10;99.90;;;;;;5075091;28;20197;-90
2022/08/20 08:31:19;;;;;;;12.80;4.18;;;22.20;99.90;;;;;;5078777;28;20558;-90
2022/08/20 08:33:45;;;;;;;5.78;4.15;;;22.20;99.90;;;;;;5079956;28;20162;-91
2022/08/20 08:36:13;;;;;;;8.50;4.43;;;22.30;99.90;;;;;;5078307;28;20589;-91
2022/08/20 08:38:42;;;;;;;11.07;3.55;;;22.40;99.90;;;;;;5076588;28;20236;-90
2022/08/20 08:41:12;;;;;;;17.10;3.88;;;22.60;99.90;;;;;;5077823;28;20190;-90
2022/08/20 08:43:38;;;;;;;15.35;3.92;;;22.80;99.90;;;;;;5077238;28;20175;-91
2022/08/20 08:46:07;;;;;;;18.10;4.97;;;22.80;99.90;;;;;;5076074;28;20178;-91
2022/08/20 08:48:37;;;;;;;13.60;4.15;;;22.70;99.90;;;;;;5075864;28;20198;-91
2022/08/20 08:51:11;;;;;;;8.73;3.70;;;22.80;99.90;;;;;;5076208;28;20183;-91
2022/08/20 08:53:42;;;;;;;9.20;4.35;;;22.90;99.90;;;;;;5076248;28;20177;-89
2022/08/20 08:56:08;;;;;;;17.50;3.50;;;23.20;99.90;;;;;;5076275;28;20194;-85
2022/08/20 08:58:35;;;;;;;8.38;3.05;;;23.20;99.90;;;;;;5078834;28;20241;-88
2022/08/20 09:01:07;;;;;;;17.25;4.35;;;23.50;99.90;;;;;;5074116;28;20186;-85
2022/08/20 09:03:36;;;;;;;12.35;3.28;;;23.60;99.90;;;;;;5074255;28;20177;-85
2022/08/20 09:06:02;;;;;;;6.88;2.95;;;23.70;99.90;;;;;;5076220;28;20171;-87
2022/08/20 09:08:44;;;;;;;6.32;3.00;;;23.70;99.90;;;;;;5077055;28;20278;-88
2022/08/20 09:11:10;;;;;;;14.20;2.78;;;23.60;99.90;;;;;;5074960;28;20182;-87
2022/08/20 09:13:35;;;;;;;11.23;3.70;;;23.80;99.90;;;;;;5076932;28;20178;-88
2022/08/20 09:16:01;;;;;;;17.67;5.07;;;24.10;99.90;;;;;;5075648;28;20171;-88
2022/08/20 09:18:27;;;;;;;8.77;3.35;;;24.40;99.90;;;;;;5079729;28;20219;-87
2022/08/20 09:20:52;;;;;;;7.25;2.20;;;24.80;99.90;;;;;;5076363;28;20201;-87
2022/08/20 09:23:18;;;;;;;17.65;2.70;;;25.10;99.90;;;;;;5076728;28;20167;-87
2022/08/20 09:25:44;;;;;;;13.90;2.35;;;25.20;99.90;;;;;;5074753;28;20159;-88
2022/08/20 09:28:09;;;;;;;10.13;2.28;;;25.50;99.90;;;;;;5074776;28;20220;-87
2022/08/20 09:30:35;;;;;;;10.65;2.03;;;25.20;99.90;;;;;;5074343;28;20186;-87
2022/08/20 09:33:01;;;;;;;6.93;1.90;;;24.70;99.90;;;;;;5074438;28;20163;-87
2022/08/20 09:35:27;;;;;;;7.25;1.73;;;24.30;99.90;;;;;;5075376;28;20216;-86
2022/08/20 09:37:53;;;;;;;5.93;1.70;;;24.20;99.90;;;;;;5074680;28;20224;-88
2022/08/20 09:40:20;;;;;;;11.55;2.08;;;24.00;99.90;;;;;;5074047;28;20166;-87
2022/08/20 09:42:46;;;;;;;8.18;1.60;;;23.80;99.90;;;;;;5074728;28;20672;-87
2022/08/20 09:45:12;;;;;;;12.55;1.70;;;23.90;99.90;;;;;;5074069;28;20170;-85
2022/08/20 09:47:39;;;;;;;13.15;1.85;;;24.30;99.90;;;;;;5073796;28;20158;-88
2022/08/20 09:50:06;;;;;;;9.50;1.60;;;24.40;99.90;;;;;;5073764;28;20206;-87
2022/08/20 09:52:44;;;;;;;18.73;2.22;;;24.50;99.90;;;;;;5073385;28;20234;-87
2022/08/20 09:55:16;;;;;;;5.05;1.70;;;24.20;99.90;;;;;;5073420;28;20173;-87
2022/08/20 09:57:42;;;;;;;6.97;1.73;;;24.20;99.90;;;;;;5074267;28;20228;-88
2022/08/20 10:00:11;;;;;;;6.70;1.98;;;24.10;99.90;;;;;;5073139;28;20198;-86
2022/08/20 10:02:36;;;;;;;4.45;1.30;;;24.20;99.90;;;;;;5073530;28;20659;-87
2022/08/20 10:05:03;;;;;;;6.03;2.58;;;24.30;99.90;;;;;;5074427;28;20166;-85
2022/08/20 10:07:28;;;;;;;12.25;2.03;;;24.30;99.90;;;;;;5073404;28;20269;-85
2022/08/20 10:09:54;;;;;;;11.50;2.08;;;24.30;99.90;;;;;;5072614;28;20644;-86
2022/08/20 10:12:19;;;;;;;5.63;1.65;;;24.40;99.90;;;;;;5073162;28;20187;-89
2022/08/20 10:14:45;;;;;;;6.60;2.30;;;24.60;99.90;;;;;;5074008;28;20177;-86
2022/08/20 10:17:11;;;;;;;8.88;2.25;;;24.50;99.90;;;;;;5073245;28;20303;-87
2022/08/20 10:19:36;;;;;;;8.60;1.70;;;24.40;99.90;;;;;;5072974;28;20221;-85
2022/08/20 10:22:02;;;;;;;7.03;1.70;;;24.50;99.90;;;;;;5073732;28;20285;-83
2022/08/20 10:24:29;;;;;;;10.75;1.80;;;24.50;99.90;;;;;;5073569;28;20162;-86
2022/08/20 10:26:57;;;;;;;6.63;1.55;;;24.80;99.90;;;;;;5074892;28;20175;-85
2022/08/20 10:29:23;;;;;;;3.97;1.40;;;24.90;99.90;;;;;;5072983;28;20205;-85
2022/08/20 10:31:49;;;;;;;9.57;3.67;;;24.90;99.90;;;;;;5073759;28;21313;-84
2022/08/20 10:34:14;;;;;;;5.97;1.75;;;25.00;99.90;;;;;;5073300;28;20171;-84
2022/08/20 10:36:41;;;;;;;10.63;1.30;;;25.20;99.90;;;;;;5072530;28;20224;-84
2022/08/20 10:39:07;;;;;;;9.00;1.80;;;25.40;99.90;;;;;;5072601;28;20208;-85
2022/08/20 10:41:32;;;;;;;6.75;2.17;;;25.40;99.90;;;;;;5071830;28;20190;-85
2022/08/20 10:43:58;;;;;;;11.10;2.20;;;25.20;99.90;;;;;;5073268;28;20208;-85
2022/08/20 10:46:24;;;;;;;5.22;2.28;;;25.00;99.90;;;;;;5073246;28;20166;-85
2022/08/20 10:48:49;;;;;;;12.45;1.85;;;24.80;99.90;;;;;;5071837;28;20206;-84
2022/08/20 10:51:15;;;;;;;12.60;1.77;;;24.50;99.90;;;;;;5070891;28;20596;-84
2022/08/20 10:53:41;;;;;;;7.30;2.05;;;24.40;99.90;;;;;;5072736;28;20162;-84
2022/08/20 10:56:06;;;;;;;10.50;2.00;;;24.30;99.90;;;;;;5073395;28;20189;-84
2022/08/20 10:58:32;;;;;;;11.43;2.20;;;24.40;99.90;;;;;;5072172;28;20174;-84
2022/08/20 11:00:57;;;;;;;7.07;1.75;;;24.40;99.90;;;;;;5072095;28;20186;-85
2022/08/20 11:03:23;;;;;;;12.77;2.35;;;24.70;99.90;;;;;;5071552;28;20170;-83
2022/08/20 11:05:49;;;;;;;14.25;1.90;;;24.70;99.90;;;;;;5073213;28;20178;-86
2022/08/20 11:08:14;;;;;;;2.45;1.48;;;24.80;99.90;;;;;;5071719;28;20285;-87
2022/08/20 11:10:41;;;;;;;7.90;1.38;;;24.70;99.90;;;;;;5070990;28;20291;-85
2022/08/20 11:13:07;;;;;;;3.00;1.38;;;24.80;99.90;;;;;;5072955;28;20520;-86
2022/08/20 11:15:36;;;;;;;9.68;1.67;;;24.90;99.90;;;;;;5071925;28;20623;-86
2022/08/20 11:18:03;;;;;;;12.68;2.22;;;25.10;99.90;;;;;;5071780;28;20162;-86
2022/08/20 11:20:30;;;;;;;5.13;1.55;;;25.10;99.90;;;;;;5071746;28;20306;-86
2022/08/20 11:22:57;;;;;;;5.32;1.40;;;25.00;99.90;;;;;;5072217;28;20162;-86
2022/08/20 11:25:23;;;;;;;4.18;1.77;;;24.90;99.90;;;;;;5073067;28;20170;-86
2022/08/20 11:27:50;;;;;;;5.78;2.60;;;24.60;99.90;;;;;;5073273;28;20178;-86
2022/08/20 11:30:29;;;;;;;8.15;2.05;;;24.50;99.90;;;;;;5074623;28;20285;-87
2022/08/20 11:32:56;;;;;;;11.05;2.65;;;24.40;99.90;;;;;;5070111;28;20231;-86
2022/08/20 11:35:22;;;;;;;9.00;1.90;;;24.50;99.90;;;;;;5063547;28;20209;-83
2022/08/20 11:37:49;;;;;;;3.38;1.95;;;24.40;99.90;;;;;;5050618;28;20205;-81
2022/08/20 11:40:15;;;;;;;1.83;1.20;;;24.60;99.90;;;;;;5050365;28;20174;-81
2022/08/20 11:42:41;;;;;;;4.50;1.65;;;24.80;99.90;;;;;;5067891;28;20182;-79
2022/08/20 11:45:07;;;;;;;6.10;1.50;;;24.70;99.90;;;;;;5062750;28;20171;-79
2022/08/20 11:47:34;;;;;;;4.22;1.23;;;25.10;99.90;;;;;;5057742;28;20268;-80
2022/08/20 11:50:10;;;;;;;5.85;1.38;;;25.20;99.90;;;;;;5068624;28;20202;-79
2022/08/20 11:52:36;;;;;;;4.22;1.40;;;25.20;99.90;;;;;;5051359;28;20194;-80
2022/08/20 11:55:02;;;;;;;9.63;3.17;;;25.20;99.90;;;;;;5059256;28;20180;-79
2022/08/20 11:57:34;;;;;;;4.88;1.80;;;25.30;99.90;;;;;;5058807;28;20212;-80
2022/08/20 12:00:01;;;;;;;8.80;2.00;;;25.40;99.90;;;;;;5071299;28;20174;-79
2022/08/20 12:02:27;;;;;;;4.57;1.80;;;25.20;99.90;;;;;;5067987;28;20201;-81
2022/08/20 12:04:53;;;;;;;4.82;1.80;;;25.30;99.90;;;;;;5058189;28;20669;-81
2022/08/20 12:07:21;;;;;;;5.72;1.52;;;25.20;99.90;;;;;;5070388;28;20194;-80
2022/08/20 12:09:47;;;;;;;10.32;1.73;;;25.30;99.90;;;;;;5070398;28;20286;-83
2022/08/20 12:12:14;;;;;;;5.45;1.30;;;25.40;99.90;;;;;;5061840;28;20194;-82
2022/08/20 12:14:40;;;;;;;7.25;1.80;;;25.20;99.90;;;;;;5067202;28;20178;-81
2022/08/20 12:17:14;;;;;;;3.60;1.20;;;25.10;99.90;;;;;;5074878;28;20630;-82
2022/08/20 12:19:41;;;;;;;5.65;1.55;;;24.80;99.90;;;;;;5072974;28;20186;-81
2022/08/20 12:22:08;;;;;;;5.45;1.20;;;24.70;99.90;;;;;;5064302;28;20190;-81
2022/08/20 12:24:34;;;;;;;3.72;1.08;;;24.80;99.90;;;;;;5066474;28;20171;-80
2022/08/20 12:27:09;;;;;;;2.50;1.50;;;25.00;99.90;;;;;;5077242;28;20175;-84
2022/08/20 12:29:37;;;;;;;5.40;1.38;;;25.30;99.90;;;;;;5059290;28;20190;-80
2022/08/20 12:32:05;;;;;;;8.20;1.00;;;25.70;99.90;;;;;;5064656;28;20217;-83
2022/08/20 12:34:33;;;;;;;5.18;1.83;;;25.60;99.90;;;;;;5062421;28;20171;-83
2022/08/20 12:37:04;;;;;;;8.90;1.40;;;25.60;99.90;;;;;;5075667;28;20170;-81
2022/08/20 12:39:32;;;;;;;4.70;1.58;;;25.60;99.90;;;;;;5055237;28;20192;-81
2022/08/20 12:41:59;;;;;;;4.25;2.17;;;25.60;99.90;;;;;;5055397;28;20187;-83
2022/08/20 12:44:25;;;;;;;3.00;0.98;;;25.60;99.90;;;;;;5055699;28;20171;-87
2022/08/20 12:46:50;;;;;;;5.40;0.90;;;25.30;99.90;;;;;;5071569;28;20228;-85
2022/08/20 12:49:16;;;;;;;2.20;1.17;;;25.30;99.90;;;;;;5063377;28;20218;-81
2022/08/20 12:51:41;;;;;;;13.73;1.40;;;25.30;99.90;;;;;;5055913;28;20191;-88